Boise, ID (83732)

6:47 PM MDT on August 27, 2016 (GMT -0600)
Bridgeview Central | | Change Station

Elev 2785 ft 43.56 °N, 116.29 °W | Updated 3 seconds ago

Clear
Clear
89.6 °F
Feels Like 86 °F
N
3.0
Wind Variable Wind from WSW

Today
High -- | Low -- °F
--% Chance of Precip.
Yesterday
High -- | Low -- °F
Precip. -- in
Pressure 29.77 in
Visibility 10.0 miles
Clouds Clear
Heat Index 86 °F
Dew Point 45 °F
Humidity 22%
Rainfall 0.00 in
Snow Depth Not available.
7:04 AM 8:28 PM
Waning Crescent, 20% visible
METAR KBOI 272353Z 35006KT 10SM CLR 32/M01 A2985 RMK AO2 SLP081 T03171006 10322 20267 56019
Pressure 29.77 in
Visibility 10.0 miles
Clouds Clear
Heat Index 86 °F
Dew Point 45 °F
Humidity 22%
Rainfall 0.00 in
Snow Depth Not available.
7:04 AM 8:28 PM
Waning Crescent, 20% visible
METAR KBOI 272353Z 35006KT 10SM CLR 32/M01 A2985 RMK AO2 SLP081 T03171006 10322 20267 56019

10-Day Weather Forecast

Almanac

Astronomy

Aug. 27, 2016 Rise Set
Actual Time
Civil Twilight
Nautical Twilight
Astronomical Twilight
Moon
Length of Visible Light
Length of Day
Tomorrow will be .
, % of the Moon is Illuminated

Today's Extremes

State Highs State Lows

Community

WunderPhotos

Upload Photos

1,935,475 photos uploaded!

WunderBlog® & News

Nearby

Air Quality

  Air Quality AQ Index Pollutant
Not available.

Snow Depth

Station Depth Elevation

Earthquake Activity

City Distance Mag. Time & Date
Minimum magnitude displayed is 2.5.

Coastal Water Temperatures

Place Temperature

Stations

Nearby Weather Stations

Station Location Temp. Windchill Dew Point Humidity Wind Precip. Elev Updated Type
                   

Watches & Warnings

There are currently no watches in effect.